createdAt,value
2019-04-05T00:00:58.968Z,11.25
2019-04-05T00:03:27.616Z,11.22
2019-04-05T00:05:56.318Z,11.17
2019-04-05T00:08:24.932Z,10.96
2019-04-05T00:10:53.700Z,11.43
2019-04-05T00:13:22.338Z,11.42
2019-04-05T00:15:50.874Z,11.35
2019-04-05T00:18:19.509Z,11.25
2019-04-05T00:20:48.184Z,11.27
2019-04-05T00:23:16.843Z,11.44
2019-04-05T00:25:45.563Z,11.40
2019-04-05T00:28:14.266Z,11.63
2019-04-05T00:30:42.909Z,11.65
2019-04-05T00:33:11.498Z,11.76
2019-04-05T00:35:40.498Z,11.96
2019-04-05T00:38:09.199Z,12.11
2019-04-05T00:40:37.718Z,12.32
2019-04-05T00:43:06.373Z,12.42
2019-04-05T00:45:35.153Z,12.40
2019-04-05T00:48:03.777Z,12.39
2019-04-05T00:50:32.313Z,12.28
2019-04-05T00:53:00.863Z,12.66
2019-04-05T00:55:29.533Z,12.98
2019-04-05T00:57:58.359Z,13.21
2019-04-05T01:00:27.087Z,13.16
2019-04-05T01:02:55.704Z,13.35
2019-04-05T01:05:24.355Z,13.14
2019-04-05T01:07:52.962Z,13.16
2019-04-05T01:10:21.799Z,13.14
2019-04-05T01:12:50.418Z,13.04
2019-04-05T01:15:19.197Z,12.98
2019-04-05T01:17:48.170Z,12.90
2019-04-05T01:20:16.743Z,12.78
2019-04-05T01:22:46.398Z,12.66
2019-04-05T01:25:16.003Z,12.54
2019-04-05T01:27:44.642Z,12.51
2019-04-05T01:30:15.728Z,12.56
2019-04-05T01:32:44.478Z,12.56
2019-04-05T01:35:14.161Z,12.61
2019-04-05T01:37:43.006Z,12.42
2019-04-05T01:40:12.404Z,12.56
2019-04-05T01:42:41.865Z,12.35
2019-04-05T01:45:13.753Z,12.60
2019-04-05T01:47:42.523Z,12.51
2019-04-05T01:50:11.462Z,12.47
2019-04-05T01:52:41.811Z,12.26
2019-04-05T01:55:10.579Z,12.33
2019-04-05T01:57:39.232Z,12.48
2019-04-05T02:00:12.281Z,12.61
2019-04-05T02:02:41.771Z,12.66
2019-04-05T02:05:11.001Z,12.69
2019-04-05T02:07:39.831Z,12.64
2019-04-05T02:10:09.722Z,12.55
2019-04-05T02:12:38.979Z,12.27
2019-04-05T02:15:09.299Z,12.09
2019-04-05T02:17:37.983Z,11.69
2019-04-05T02:20:08.916Z,11.76
2019-04-05T02:22:37.643Z,11.48
2019-04-05T02:25:07.321Z,11.38
2019-04-05T02:27:36.309Z,11.42
2019-04-05T02:30:06.633Z,11.10
2019-04-05T02:32:35.201Z,10.92
2019-04-05T02:35:04.877Z,10.85
2019-04-05T02:37:33.630Z,10.93
2019-04-05T02:40:02.497Z,10.71
2019-04-05T02:42:32.174Z,10.63
2019-04-05T02:45:00.881Z,10.49
2019-04-05T02:47:30.121Z,10.89
2019-04-05T02:49:59.675Z,11.12
2019-04-05T02:52:30.112Z,11.29
2019-04-05T02:55:00.084Z,11.27
2019-04-05T02:57:30.010Z,11.47
2019-04-05T02:59:58.879Z,11.58
2019-04-05T03:02:28.099Z,11.62
2019-04-05T03:04:56.985Z,11.73
2019-04-05T03:07:27.665Z,11.81
2019-04-05T03:09:58.208Z,11.78
2019-04-05T03:12:27.039Z,11.92
2019-04-05T03:14:56.062Z,12.00
2019-04-05T03:17:25.424Z,11.94
2019-04-05T03:19:57.020Z,11.78
2019-04-05T03:22:28.594Z,11.71
2019-04-05T03:24:59.219Z,12.04
2019-04-05T03:27:30.808Z,12.06
2019-04-05T03:30:00.619Z,11.92
2019-04-05T03:32:29.386Z,11.76
2019-04-05T03:34:58.794Z,11.76
2019-04-05T03:37:27.439Z,11.46
2019-04-05T03:39:56.422Z,11.34
2019-04-05T03:42:25.322Z,11.05
2019-04-05T03:44:54.389Z,11.19
2019-04-05T03:47:23.121Z,11.14
2019-04-05T03:49:51.712Z,10.96
2019-04-05T03:52:20.426Z,10.87
2019-04-05T03:54:49.179Z,11.05
2019-04-05T03:57:18.054Z,10.97
2019-04-05T03:59:47.140Z,10.93
2019-04-05T04:02:15.866Z,11.05
2019-04-05T04:04:44.531Z,11.05
2019-04-05T04:07:13.672Z,11.04
2019-04-05T04:09:42.453Z,11.02
2019-04-05T04:12:11.153Z,11.02
2019-04-05T04:14:40.321Z,10.79
2019-04-05T04:17:12.475Z,10.80
2019-04-05T04:19:39.353Z,10.70
2019-04-05T04:22:19.763Z,10.63
2019-04-05T04:24:49.619Z,10.35
2019-04-05T04:27:18.942Z,10.17
2019-04-05T04:29:47.573Z,9.91
2019-04-05T04:32:16.347Z,9.60
2019-04-05T04:34:45.245Z,9.48
2019-04-05T04:37:14.090Z,9.30
2019-04-05T04:39:42.967Z,9.18
2019-04-05T04:42:12.658Z,9.39
2019-04-05T04:44:42.540Z,9.62
2019-04-05T04:47:25.788Z,9.58
2019-04-05T04:49:42.994Z,9.59
2019-04-05T04:52:12.055Z,9.76
2019-04-05T04:54:40.703Z,9.82
2019-04-05T04:57:09.487Z,9.88
2019-04-05T04:59:38.603Z,10.07
2019-04-05T05:02:07.575Z,9.80
2019-04-05T05:04:36.593Z,9.70
2019-04-05T05:07:05.493Z,9.54
2019-04-05T05:09:34.551Z,9.66
2019-04-05T05:12:03.652Z,9.52
2019-04-05T05:14:32.712Z,9.72
2019-04-05T05:17:01.486Z,9.67
2019-04-05T05:19:30.745Z,9.77
2019-04-05T05:21:59.449Z,9.89
2019-04-05T05:24:28.362Z,9.86
2019-04-05T05:26:58.420Z,10.02
2019-04-05T05:29:27.260Z,10.07
2019-04-05T05:31:55.864Z,9.91
2019-04-05T05:34:24.677Z,9.81
2019-04-05T05:36:53.957Z,9.74
2019-04-05T05:39:23.217Z,9.77
2019-04-05T05:41:52.097Z,9.87
2019-04-05T05:44:20.700Z,9.87
2019-04-05T05:46:49.490Z,9.91
2019-04-05T05:49:18.159Z,9.98
2019-04-05T05:51:48.250Z,10.05
2019-04-05T05:54:16.840Z,10.09
2019-04-05T05:56:45.722Z,10.24
2019-04-05T05:59:14.430Z,10.37
2019-04-05T06:01:43.045Z,10.53
2019-04-05T06:04:12.847Z,10.56
2019-04-05T06:06:41.645Z,10.68
2019-04-05T06:09:10.461Z,10.88
2019-04-05T06:11:39.093Z,10.94
2019-04-05T06:14:07.772Z,10.82
2019-04-05T06:16:46.364Z,10.88
2019-04-05T06:19:06.940Z,11.01
2019-04-05T06:21:35.701Z,11.08
2019-04-05T06:24:05.381Z,11.27
2019-04-05T06:26:34.324Z,11.12
2019-04-05T06:29:02.869Z,11.08
2019-04-05T06:31:31.613Z,11.12
2019-04-05T06:34:00.683Z,11.08
2019-04-05T06:36:29.341Z,10.80
2019-04-05T06:38:58.218Z,10.73
2019-04-05T06:41:27.196Z,10.87
2019-04-05T06:43:55.960Z,10.85
2019-04-05T06:46:24.720Z,11.13
2019-04-05T06:48:53.268Z,11.17
2019-04-05T06:51:21.962Z,11.31
2019-04-05T06:53:50.911Z,11.23
2019-04-05T06:56:19.771Z,11.34
2019-04-05T06:58:48.803Z,11.35
2019-04-05T07:01:17.992Z,11.73
2019-04-05T07:03:47.833Z,11.61
2019-04-05T07:06:16.862Z,11.81
2019-04-05T07:08:53.808Z,11.78
2019-04-05T07:11:16.493Z,11.87
2019-04-05T07:13:45.351Z,11.72
2019-04-05T07:16:14.273Z,11.78
2019-04-05T07:18:43.072Z,11.86
2019-04-05T07:21:11.683Z,12.10
2019-04-05T07:23:40.379Z,12.03
2019-04-05T07:26:09.153Z,12.31
2019-04-05T07:28:37.722Z,12.24
2019-04-05T07:31:06.430Z,12.40
2019-04-05T07:33:35.222Z,12.42
2019-04-05T07:36:03.885Z,12.44
2019-04-05T07:38:32.869Z,12.80
2019-04-05T07:41:01.458Z,12.94
2019-04-05T07:43:30.019Z,12.95
2019-04-05T07:45:58.662Z,13.20
2019-04-05T07:48:27.225Z,13.23
2019-04-05T07:50:55.773Z,13.63
2019-04-05T07:53:24.441Z,13.42
2019-04-05T07:55:53.516Z,13.40
2019-04-05T07:58:22.098Z,13.51
2019-04-05T08:00:53.581Z,13.54
2019-04-05T08:03:23.475Z,13.61
2019-04-05T08:05:53.434Z,13.71
2019-04-05T08:08:44.676Z,13.66
2019-04-05T08:11:14.305Z,13.68
2019-04-05T08:13:45.840Z,13.80
2019-04-05T08:16:14.783Z,13.85
2019-04-05T08:18:43.480Z,14.00
2019-04-05T08:21:12.253Z,14.23
2019-04-05T08:23:41.006Z,14.31
2019-04-05T08:26:09.510Z,14.26
2019-04-05T08:28:38.266Z,14.47
2019-04-05T08:31:10.792Z,14.81
2019-04-05T08:33:37.332Z,14.80
2019-04-05T08:36:06.004Z,14.73
2019-04-05T08:38:34.576Z,14.68
2019-04-05T08:41:03.175Z,14.68
2019-04-05T08:43:31.923Z,15.03
2019-04-05T08:46:00.551Z,15.08
2019-04-05T08:48:29.311Z,15.28
2019-04-05T08:50:57.993Z,15.51
2019-04-05T08:53:26.641Z,15.63
2019-04-05T08:55:55.418Z,15.88
2019-04-05T08:58:33.304Z,15.68
2019-04-05T09:00:54.784Z,15.76
2019-04-05T09:03:23.598Z,15.61
2019-04-05T09:05:52.215Z,15.57
2019-04-05T09:08:21.494Z,15.33
2019-04-05T09:10:50.312Z,15.57
2019-04-05T09:13:19.123Z,15.69
2019-04-05T09:15:47.831Z,15.83
2019-04-05T09:18:16.490Z,16.09
2019-04-05T09:20:45.212Z,16.62
2019-04-05T09:23:13.745Z,17.10
2019-04-05T09:25:42.810Z,17.72
2019-04-05T09:28:11.552Z,18.59
2019-04-05T09:30:40.461Z,19.08
2019-04-05T09:33:09.132Z,20.07
2019-04-05T09:35:37.763Z,20.49
2019-04-05T09:38:07.451Z,20.43
2019-04-05T09:40:36.179Z,21.15
2019-04-05T09:43:04.936Z,21.20
2019-04-05T09:45:33.638Z,21.51
2019-04-05T09:48:02.330Z,21.32
2019-04-05T09:50:31.060Z,21.22
2019-04-05T09:52:59.807Z,21.03
2019-04-05T09:55:28.534Z,20.37
2019-04-05T09:57:57.221Z,20.20
2019-04-05T10:00:27.572Z,20.22
2019-04-05T10:02:56.396Z,19.75
2019-04-05T10:05:25.052Z,19.57
2019-04-05T10:07:55.597Z,19.12
2019-04-05T10:10:24.284Z,19.27
2019-04-05T10:12:53.187Z,18.77
2019-04-05T10:15:22.096Z,18.82
2019-04-05T10:17:50.992Z,18.49
2019-04-05T10:20:19.670Z,18.39
2019-04-05T10:22:48.940Z,18.87
2019-04-05T10:25:17.813Z,18.55
2019-04-05T10:27:46.520Z,18.67
2019-04-05T10:30:17.588Z,18.47
2019-04-05T10:32:46.526Z,18.50
2019-04-05T10:35:15.475Z,18.87
2019-04-05T10:37:44.104Z,18.79
2019-04-05T10:40:12.950Z,18.34
2019-04-05T10:42:41.817Z,18.61
2019-04-05T10:45:11.981Z,19.05
2019-04-05T10:47:40.691Z,19.09
2019-04-05T10:50:12.410Z,19.45
2019-04-05T10:52:41.043Z,19.57
2019-04-05T10:55:10.511Z,19.63
2019-04-05T10:57:39.304Z,20.04
2019-04-05T11:00:11.334Z,20.19
2019-04-05T11:02:40.086Z,20.29
2019-04-05T11:05:08.912Z,20.29
2019-04-05T11:07:37.940Z,20.79
2019-04-05T11:10:07.961Z,20.74
2019-04-05T11:12:36.608Z,21.03
2019-04-05T11:15:07.385Z,21.66
2019-04-05T11:17:36.071Z,21.52
2019-04-05T11:20:20.756Z,21.72
2019-04-05T11:22:38.470Z,21.50
2019-04-05T11:25:08.820Z,21.53
2019-04-05T11:27:37.523Z,22.62
2019-04-05T11:30:08.306Z,24.17
2019-04-05T11:32:36.973Z,24.94
2019-04-05T11:35:08.511Z,24.22
2019-04-05T11:37:39.463Z,22.14
2019-04-05T11:40:09.579Z,21.70
2019-04-05T11:42:38.853Z,21.64
2019-04-05T11:45:10.641Z,23.05
2019-04-05T11:47:41.301Z,24.20
2019-04-05T11:50:14.946Z,24.27
2019-04-05T11:52:43.802Z,24.45
2019-04-05T11:55:12.621Z,24.56
2019-04-05T11:57:41.951Z,24.88
2019-04-05T12:00:13.960Z,24.15
2019-04-05T12:02:47.040Z,23.12
2019-04-05T12:05:17.281Z,24.08
2019-04-05T12:07:45.941Z,24.03
2019-04-05T12:10:14.665Z,24.14
2019-04-05T12:12:43.216Z,24.77
2019-04-05T12:15:12.165Z,24.60
2019-04-05T12:17:40.835Z,23.82
2019-04-05T12:20:10.119Z,22.47
2019-04-05T12:22:38.991Z,21.65
2019-04-05T12:25:07.831Z,21.57
2019-04-05T12:27:36.919Z,21.76
2019-04-05T12:30:09.659Z,23.02
2019-04-05T12:32:41.347Z,25.25
2019-04-05T12:35:08.744Z,26.85
2019-04-05T12:37:49.533Z,25.38
2019-04-05T12:40:10.261Z,25.19
2019-04-05T12:42:42.711Z,27.32
2019-04-05T12:45:09.823Z,27.57
2019-04-05T12:47:38.985Z,29.60
2019-04-05T12:50:09.311Z,30.26
2019-04-05T12:52:38.165Z,29.81
2019-04-05T12:55:07.847Z,29.99
2019-04-05T12:57:36.581Z,30.30
2019-04-05T13:00:13.347Z,30.93
2019-04-05T13:02:43.844Z,30.74
2019-04-05T13:05:13.685Z,29.12
2019-04-05T13:07:42.461Z,28.97
2019-04-05T13:10:11.713Z,29.92
2019-04-05T13:12:40.559Z,29.58
2019-04-05T13:15:12.892Z,27.97
2019-04-05T13:17:40.793Z,25.28
2019-04-05T13:20:10.085Z,23.87
2019-04-05T13:22:38.580Z,26.15
2019-04-05T13:25:10.690Z,27.71
2019-04-05T13:27:41.279Z,30.04
2019-04-05T13:30:09.892Z,28.74
2019-04-05T13:32:38.399Z,27.92
2019-04-05T13:35:07.310Z,27.95
2019-04-05T13:37:35.978Z,25.96
2019-04-05T13:40:06.552Z,24.35
2019-04-05T13:42:35.703Z,23.31
2019-04-05T13:45:06.132Z,22.84
2019-04-05T13:47:38.951Z,22.75
2019-04-05T13:50:11.256Z,22.55
2019-04-05T13:52:41.487Z,22.75
2019-04-05T13:55:11.323Z,22.43
2019-04-05T13:57:41.007Z,22.01
2019-04-05T14:00:11.176Z,21.84
2019-04-05T14:02:39.723Z,21.82
2019-04-05T14:05:08.910Z,21.37
2019-04-05T14:07:37.433Z,21.29
2019-04-05T14:10:11.069Z,21.06
2019-04-05T14:12:40.235Z,20.80
2019-04-05T14:15:11.370Z,20.64
2019-04-05T14:17:44.081Z,20.66
2019-04-05T14:20:10.458Z,20.64
2019-04-05T14:22:39.154Z,20.45
2019-04-05T14:25:08.177Z,20.40
2019-04-05T14:27:36.828Z,21.29
2019-04-05T14:30:08.471Z,22.82
2019-04-05T14:32:36.962Z,23.47
2019-04-05T14:35:09.134Z,24.30
2019-04-05T14:37:37.948Z,25.84
2019-04-05T14:40:07.904Z,27.07
2019-04-05T14:42:36.481Z,28.46
2019-04-05T14:45:07.555Z,29.17
2019-04-05T14:47:36.151Z,30.38
2019-04-05T14:50:07.229Z,30.67
2019-04-05T14:52:35.996Z,29.99
2019-04-05T14:55:05.677Z,30.44
2019-04-05T14:57:35.643Z,29.53
2019-04-05T15:00:09.627Z,30.65
2019-04-05T15:02:38.376Z,30.56
2019-04-05T15:05:07.930Z,26.03
2019-04-05T15:07:37.883Z,23.02
2019-04-05T15:12:34.797Z,24.18
2019-04-05T15:15:04.046Z,24.16
2019-04-05T15:17:32.709Z,22.83
2019-04-05T15:20:04.765Z,21.23
2019-04-05T15:22:31.771Z,21.01
2019-04-05T15:25:01.092Z,20.83
2019-04-05T15:27:29.839Z,20.75
2019-04-05T15:29:58.480Z,20.51
2019-04-05T15:32:27.650Z,20.49
2019-04-05T15:34:58.584Z,20.35
2019-04-05T15:37:26.533Z,20.16
2019-04-05T15:39:55.542Z,20.12
2019-04-05T15:42:24.140Z,20.01
2019-04-05T15:44:52.827Z,20.04
2019-04-05T15:47:23.404Z,19.89
2019-04-05T15:49:52.868Z,19.80
2019-04-05T15:52:21.533Z,19.75
2019-04-05T15:54:50.221Z,19.55
2019-04-05T15:57:18.786Z,19.47
2019-04-05T15:59:47.383Z,19.64
2019-04-05T16:02:16.364Z,20.05
2019-04-05T16:04:44.976Z,20.02
2019-04-05T16:07:13.644Z,19.84
2019-04-05T16:09:42.410Z,19.49
2019-04-05T16:12:11.089Z,18.96
2019-04-05T16:14:39.678Z,18.50
2019-04-05T16:17:08.283Z,18.54
2019-04-05T16:19:36.910Z,18.53
2019-04-05T16:22:05.560Z,18.54
2019-04-05T16:24:34.184Z,18.53
2019-04-05T16:27:02.901Z,18.55
2019-04-05T16:29:31.526Z,18.24
2019-04-05T16:32:00.173Z,18.06
2019-04-05T16:34:28.707Z,17.57
2019-04-05T16:36:57.351Z,17.67
2019-04-05T16:39:25.905Z,17.69
2019-04-05T16:41:54.589Z,17.63
2019-04-05T16:44:23.175Z,17.62
2019-04-05T16:46:51.893Z,17.54
2019-04-05T16:49:20.476Z,17.68
2019-04-05T16:51:49.098Z,17.63
2019-04-05T16:54:17.679Z,17.61
2019-04-05T16:56:46.217Z,17.61
2019-04-05T16:59:14.789Z,17.60
2019-04-05T17:01:43.416Z,17.62
2019-04-05T17:04:12.140Z,17.45
2019-04-05T17:06:40.691Z,17.37
2019-04-05T17:09:09.431Z,17.46
2019-04-05T17:11:38.197Z,17.36
2019-04-05T17:14:07.149Z,17.32
2019-04-05T17:16:35.812Z,17.29
2019-04-05T17:19:04.638Z,17.21
2019-04-05T17:21:33.178Z,17.08
2019-04-05T17:24:01.808Z,16.96
2019-04-05T17:26:30.409Z,16.81
2019-04-05T17:28:59.105Z,16.51
2019-04-05T17:31:27.836Z,16.29
2019-04-05T17:33:56.554Z,16.16
2019-04-05T17:36:25.265Z,15.86
2019-04-05T17:38:53.871Z,15.76
2019-04-05T17:41:22.693Z,15.60
2019-04-05T17:43:51.420Z,15.63
2019-04-05T17:46:20.501Z,15.39
2019-04-05T17:48:51.639Z,15.19
2019-04-05T17:51:19.733Z,14.99
2019-04-05T17:53:48.320Z,15.04
2019-04-05T17:56:17.408Z,14.75
2019-04-05T17:58:46.350Z,14.33
2019-04-05T18:01:15.027Z,14.10
2019-04-05T18:03:43.744Z,14.12
2019-04-05T18:06:12.318Z,14.04
2019-04-05T18:08:41.616Z,13.94
2019-04-05T18:11:10.310Z,13.92
2019-04-05T18:13:39.145Z,13.87
2019-04-05T18:16:08.070Z,13.62
2019-04-05T18:18:36.741Z,13.42
2019-04-05T18:21:05.753Z,13.09
2019-04-05T18:23:34.428Z,12.91
2019-04-05T18:26:02.971Z,12.79
2019-04-05T18:28:31.565Z,12.65
2019-04-05T18:31:00.131Z,12.57
2019-04-05T18:33:28.830Z,12.38
2019-04-05T18:35:57.399Z,12.23
2019-04-05T18:38:27.544Z,12.10
2019-04-05T18:40:56.165Z,12.16
2019-04-05T18:43:24.785Z,12.14
2019-04-05T18:45:53.387Z,11.87
2019-04-05T18:48:22.103Z,11.75
2019-04-05T18:50:50.882Z,11.70
2019-04-05T18:53:19.651Z,11.45
2019-04-05T18:55:48.309Z,11.35
2019-04-05T18:58:16.831Z,11.28
2019-04-05T19:00:45.323Z,11.21
2019-04-05T19:03:13.898Z,11.12
2019-04-05T19:05:42.541Z,11.17
2019-04-05T19:08:11.304Z,10.95
2019-04-05T19:10:39.912Z,10.80
2019-04-05T19:13:08.472Z,10.86
2019-04-05T19:15:37.031Z,10.76
2019-04-05T19:18:05.901Z,10.69
2019-04-05T19:20:36.802Z,10.57
2019-04-05T19:23:04.859Z,10.64
2019-04-05T19:25:33.471Z,10.66
2019-04-05T19:28:02.097Z,10.54
2019-04-05T19:50:34.406Z,10.64
2019-04-05T19:53:03.216Z,10.70
2019-04-05T19:55:31.931Z,10.74
2019-04-05T19:58:00.476Z,10.59
2019-04-05T20:00:29.320Z,10.56
2019-04-05T20:02:59.340Z,10.56
2019-04-05T20:05:28.661Z,10.55
2019-04-05T20:07:57.397Z,10.54
2019-04-05T20:10:26.195Z,10.49
2019-04-05T20:12:54.704Z,10.61
2019-04-05T20:15:23.265Z,10.76
2019-04-05T20:17:51.777Z,10.72
2019-04-05T20:20:20.466Z,10.68
2019-04-05T20:22:49.220Z,10.76
2019-04-05T20:25:18.073Z,10.82
2019-04-05T20:27:46.752Z,10.74
2019-04-05T20:30:15.901Z,10.93
2019-04-05T20:32:44.413Z,10.97
2019-04-05T20:35:12.981Z,10.98
2019-04-05T20:37:41.532Z,11.31
2019-04-05T20:40:10.184Z,11.55
2019-04-05T20:42:38.709Z,11.80
2019-04-05T20:45:07.575Z,11.73
2019-04-05T20:47:36.101Z,11.80
2019-04-05T20:50:06.599Z,11.89
2019-04-05T20:52:35.135Z,12.14
2019-04-05T20:55:04.746Z,12.24
2019-04-05T20:57:33.311Z,12.31
2019-04-05T21:00:01.949Z,12.34
2019-04-05T21:02:30.949Z,12.40
2019-04-05T21:04:59.627Z,12.55
2019-04-05T21:07:28.391Z,12.67
2019-04-05T21:09:57.022Z,12.80
2019-04-05T21:12:26.116Z,12.73
2019-04-05T21:14:54.862Z,12.82
2019-04-05T21:17:23.413Z,12.83
2019-04-05T21:19:52.197Z,12.89
2019-04-05T21:22:20.950Z,12.87
2019-04-05T21:24:49.575Z,12.99
2019-04-05T21:27:18.199Z,12.79
2019-04-05T21:29:46.872Z,12.55
2019-04-05T21:32:16.320Z,12.44
2019-04-05T21:34:45.175Z,12.64
2019-04-05T21:37:13.890Z,12.58
2019-04-05T21:39:42.572Z,12.56
2019-04-05T21:42:11.156Z,12.61
2019-04-05T21:44:39.699Z,12.55
2019-04-05T21:47:11.960Z,12.50
2019-04-05T21:49:40.636Z,12.38
2019-04-05T21:52:09.478Z,12.51
2019-04-05T21:54:47.133Z,12.39
2019-04-05T21:57:09.091Z,12.33
2019-04-05T21:59:38.155Z,12.38
2019-04-05T22:02:07.197Z,12.43
2019-04-05T22:04:36.011Z,12.50
2019-04-05T22:07:04.847Z,12.45
2019-04-05T22:09:33.730Z,12.21
2019-04-05T22:12:02.537Z,12.21
2019-04-05T22:14:31.314Z,12.11
2019-04-05T22:16:59.872Z,12.06
2019-04-05T22:19:28.490Z,11.82
2019-04-05T22:21:57.091Z,11.66
2019-04-05T22:24:25.852Z,11.69
2019-04-05T22:26:54.641Z,11.68
2019-04-05T22:29:23.410Z,11.51
2019-04-05T22:31:52.376Z,11.42
2019-04-05T22:34:20.980Z,11.30
2019-04-05T22:36:49.565Z,11.09
2019-04-05T22:39:18.208Z,11.17
2019-04-05T22:41:46.874Z,11.10
2019-04-05T22:44:15.461Z,11.00
2019-04-05T22:46:44.349Z,10.94
2019-04-05T22:49:12.896Z,10.78
2019-04-05T22:51:41.528Z,10.65
2019-04-05T22:54:10.403Z,10.61
2019-04-05T22:56:39.020Z,10.46
2019-04-05T22:59:07.522Z,10.29
2019-04-05T23:01:36.203Z,10.20
2019-04-05T23:04:04.855Z,10.11
2019-04-05T23:06:33.412Z,9.93
2019-04-05T23:09:01.920Z,9.71
2019-04-05T23:11:30.511Z,9.60
2019-04-05T23:13:59.070Z,9.55
2019-04-05T23:16:27.810Z,9.63
2019-04-05T23:18:56.436Z,9.52
2019-04-05T23:21:25.026Z,9.22
2019-04-05T23:23:53.632Z,9.01
2019-04-05T23:26:22.432Z,8.98
2019-04-05T23:28:51.059Z,8.88
2019-04-05T23:31:19.633Z,8.72
2019-04-05T23:33:48.287Z,8.83
2019-04-05T23:36:16.834Z,8.55
2019-04-05T23:38:45.519Z,8.27
2019-04-05T23:41:14.160Z,8.25
2019-04-05T23:43:42.708Z,8.11
2019-04-05T23:46:11.270Z,7.95
2019-04-05T23:48:40.162Z,8.03
2019-04-05T23:51:08.680Z,7.94
2019-04-05T23:53:37.289Z,7.65
2019-04-05T23:56:06.234Z,7.52
2019-04-05T23:58:34.828Z,7.52
